Holstein, NE (68950)

7:34 PM CDT on August 04, 2015 (GMT -0500)
Kuehn International Airport | | Change Station
CLOSE
Current Station
Personal Weather Station
Location: Heartwell, NE
Elevation: 2083 ft
Nearby Weather Stations
Active Advisory: Severe Thunderstorm Watch

Elev 2083 ft 40.57 °N, 98.81 °W | Updated 3 minutes ago

Partly Cloudy
Partly Cloudy
64.0 °F
Feels Like 64.0 °F
N
0.0
Wind Variable Wind from SSE
Gusts 0.0 mph

Today
High -- | Low -- °F
--% Chance of Precip.
Yesterday
High -- | Low -- °F
Precip. -- in
6:34 AM 8:46 PM
Waning Gibbous, 73% visible
Pressure 29.95 in
Visibility 7.0 miles
Clouds
Dew Point 64 °F
Humidity 100%
Rainfall 0.46 in
Snow Depth Not available.
UV Not available.
Pollen 7.70 out of 12
Air Quality Not available.
Flu Activity Not available.
SPECI KHSI 050014Z AUTO 17007KT 7SM -RA 19/18 A2995 RMK AO2 LTG DSNT SW RAB2353 TSE2325 P0012 T01890178 $

More Conditions Fewer Conditions

Pressure 29.95 in
Visibility 7.0 miles
Clouds
Dew Point 64 °F
Humidity 100%
Rainfall 0.46 in
Snow Depth Not available.
UV Not available.
Pollen 7.70 out of 12
Air Quality Not available.
Flu Activity Not available.
SPECI KHSI 050014Z AUTO 17007KT 7SM -RA 19/18 A2995 RMK AO2 LTG DSNT SW RAB2353 TSE2325 P0012 T01890178 $

More Conditions Fewer Conditions

10-Day Weather Forecast

×

Almanac

Astronomy

Aug. 04, 2015 Rise Set
Actual Time
Civil Twilight
Nautical Twilight
Astronomical Twilight
Moon
Length of Visible Light
Length of Day
Tomorrow will be .
, % of the Moon is Illuminated

Today's Extremes

State Highs State Lows

Community

WunderPhotos

Upload Photos

1,844,033 photos uploaded!

WunderBlogs® & News

Nearby

Air Quality

  Air Quality AQ Index Pollutant
Not available.

Snow Depth

Station Depth Elevation

Earthquake Activity

City Distance Mag. Time & Date
Minimum magnitude displayed is 2.5.

Coastal Water Temperatures

Place Temperature

Stations

Nearby Weather Stations

Station Location Temp. Windchill Dew Point Humidity Wind Precip. Elev Updated Type
                   
Severe Thunderstorm Watch
Statement as of 7:23 PM CDT on August 04, 2015

Severe Thunderstorm Watch 470 remains in effect until 900 PM CDT

NE
. Nebraska counties included are

Adams Buffalo Dawson
Franklin Furnas Gosper
Harlan Kearney Nuckolls
Phelps Webster